Terminal Aerodrome Forecast
Issued by NWS

Home | Current Version | Previous Version | Text Only | Print | Product List | Glossary Off
Versions: 1 2 3 4 5 6 7 8 9 10 11 12 13 14 15 16 17

000
FTUS43 KTOP 260200 AAA
TAFFOE
TAF AMD
KFOE 260204Z 2602/2624 31010KT P6SM SCT023
     FM260500 23008KT P6SM FEW020 SCT040
     FM261700 30013KT P6SM SCT080=

USA.gov is the U.S. government's official web portal to all federal, state and local government web resources and services.